Hlavní strana
METAR-TAF:

METAR-TAF

Letiště :

Rowan County Airport

Salisbury, Severní Karolína, Spojené státy americké

zeměpisná šířka: 35-39N, zeměpisná délka: 080-31W, výška: 236 m

Aktuální stav počasí

Zpráva byla vytvořena před 14 minutami, v 16:15 UTC
Severozápadní vítr 9 kt s nárazy do 15 kt
Teplota 5°C
Vlhkost vzduchu 41%
Tlak 1017 hPa
Viditelnost: 16.1 km
Jasno

METAR: KRUQ 271615Z AUTO 31009G15KT 10SM CLR 05/M07 A3003 RMK AO2 T00521073

Čas: 11:29 (16:29 UTC)


TAF: chybějící

Stav a předpovědi počasí z více než 4 000 letišť (zprávy METAR a TAF).

Červené a žluté tečky na mapě představují dostupné meteorologické stanice.

Když kurzor umístíte na tečku, zobrazí se název stanice.

Pak kliknutím zobrazíte stav a předpověď počasí.

Chcete-li změnit mapu, kliknutím na zelené tlačítko se znaménkem +mapu přiblížíte, kliknutím na zelené tlačítko se znaménkem – mapu oddálíte a kliknutím na zelené šipky přejdete na sousední mapy.


METAR-TAF: